Time;durP1;ratioP1;P1;durP2;ratioP2;P2;SDS_P1;SDS_P2;PMS_P1;PMS_P2;Temp;Humidity;BMP_temperature;BMP_pressure;BME280_temperature;BME280_humidity;BME280_pressure;Samples;Min_cycle;Max_cycle;Signal;HPM_P1;HPM_P2
2023/01/11 00:01:33;;;;;;;2.63;2.23;;;9.20;97.60;;;;;;10313868;28;20223;-82
2023/01/11 00:06:35;;;;;;;3.03;2.40;;;9.20;97.50;;;;;;10324035;28;20254;-82
2023/01/11 00:11:38;;;;;;;2.80;2.60;;;9.30;97.50;;;;;;10327288;28;20200;-82
2023/01/11 00:16:42;;;;;;;2.20;2.03;;;9.30;97.70;;;;;;10317191;28;20319;-82
2023/01/11 00:21:44;;;;;;;2.30;2.20;;;9.30;97.60;;;;;;10315587;28;20691;-82
2023/01/11 00:26:46;;;;;;;3.23;2.93;;;9.30;97.60;;;;;;10336132;28;20262;-82
2023/01/11 00:31:52;;;;;;;2.67;2.10;;;9.30;97.90;;;;;;10341840;28;20203;-82
2023/01/11 00:36:54;;;;;;;2.57;2.37;;;9.40;98.40;;;;;;10325481;28;20223;-83
2023/01/11 00:52:37;;;;;;;2.47;2.27;;;9.50;98.80;;;;;;10316219;28;20199;-82
2023/01/11 00:57:39;;;;;;;2.50;2.30;;;9.50;98.90;;;;;;10323410;28;20236;-82
2023/01/11 01:02:42;;;;;;;2.80;1.90;;;9.50;99.20;;;;;;10322802;28;20821;-83
2023/01/11 01:07:45;;;;;;;3.07;2.10;;;9.50;99.10;;;;;;10316647;28;20762;-82
2023/01/11 01:18:08;;;;;;;2.07;1.97;;;9.50;99.50;;;;;;10312360;28;20347;-83
2023/01/11 01:23:10;;;;;;;2.17;2.00;;;9.50;99.90;;;;;;10308049;28;20293;-82
2023/01/11 01:28:12;;;;;;;2.10;2.00;;;9.50;99.90;;;;;;10308070;28;20215;-82
2023/01/11 01:33:15;;;;;;;3.90;2.10;;;9.50;99.90;;;;;;10314869;28;20399;-82
2023/01/11 01:38:17;;;;;;;2.33;2.10;;;9.50;99.90;;;;;;10303107;28;20219;-82
2023/01/11 01:43:19;;;;;;;2.20;1.80;;;9.60;99.90;;;;;;10297568;28;20709;-82
2023/01/11 01:48:26;;;;;;;2.00;1.90;;;9.60;99.90;;;;;;10354715;23;20655;-81
2023/01/11 01:53:34;;;;;;;2.80;2.20;;;9.60;99.90;;;;;;10335767;28;20198;-81
2023/01/11 01:58:42;;;;;;;2.00;1.90;;;9.60;99.90;;;;;;10311951;28;20290;-81
2023/01/11 02:03:45;;;;;;;1.80;1.70;;;9.60;99.90;;;;;;10309836;28;20230;-80
2023/01/11 02:08:53;;;;;;;2.53;2.33;;;9.50;99.90;;;;;;10297167;28;20254;-81
2023/01/11 02:13:56;;;;;;;2.20;2.10;;;9.60;99.90;;;;;;10332890;28;20210;-80
2023/01/11 02:19:01;;;;;;;2.10;2.00;;;9.50;99.90;;;;;;10309473;28;20203;-80
2023/01/11 02:24:35;;;;;;;1.90;1.80;;;9.60;99.90;;;;;;10294846;28;20306;-81
2023/01/11 02:29:51;;;;;;;2.17;2.07;;;9.60;99.90;;;;;;10314424;28;20230;-81
2023/01/11 02:35:02;;;;;;;2.57;1.87;;;9.70;99.90;;;;;;10306463;28;21114;-81
2023/01/11 02:40:15;;;;;;;3.17;1.80;;;9.70;99.90;;;;;;10329279;28;20590;-80
2023/01/11 02:45:27;;;;;;;1.87;1.77;;;9.70;99.90;;;;;;10295344;28;20231;-81
2023/01/11 02:50:35;;;;;;;2.00;1.90;;;9.70;99.90;;;;;;10324311;28;20199;-81
2023/01/11 02:55:40;;;;;;;1.93;1.83;;;9.70;99.90;;;;;;10306175;28;20737;-80
2023/01/11 03:00:46;;;;;;;2.10;2.00;;;9.70;99.90;;;;;;10326592;28;20227;-80
2023/01/11 03:05:52;;;;;;;2.37;2.17;;;9.80;99.90;;;;;;10312671;28;20223;-82
2023/01/11 03:11:03;;;;;;;1.87;1.77;;;9.90;99.90;;;;;;10308915;28;20199;-81
2023/01/11 03:16:20;;;;;;;2.00;1.90;;;9.90;99.90;;;;;;10303970;28;20231;-81
2023/01/11 03:21:35;;;;;;;2.30;2.10;;;10.00;99.90;;;;;;10311124;28;20230;-81
2023/01/11 03:26:49;;;;;;;1.90;1.80;;;10.10;99.90;;;;;;10293106;28;20229;-80
2023/01/11 03:31:58;;;;;;;1.50;1.50;;;10.20;99.90;;;;;;10322345;28;20660;-80
2023/01/11 03:37:06;;;;;;;1.90;1.80;;;10.10;99.90;;;;;;10324753;28;20235;-80
2023/01/11 03:42:11;;;;;;;2.30;1.93;;;10.20;99.90;;;;;;10287809;28;20223;-80
2023/01/11 03:47:19;;;;;;;1.90;1.80;;;10.20;99.90;;;;;;10295508;28;20716;-79
2023/01/11 03:52:24;;;;;;;2.00;1.90;;;10.20;99.90;;;;;;10326106;28;20253;-81
2023/01/11 03:57:31;;;;;;;1.90;1.80;;;10.20;99.90;;;;;;10315523;28;20242;-80
2023/01/11 04:02:38;;;;;;;1.70;1.70;;;10.20;99.90;;;;;;10302271;28;20223;-80
2023/01/11 04:07:41;;;;;;;2.10;2.00;;;10.10;99.90;;;;;;10303124;28;20328;-78
2023/01/11 04:12:45;;;;;;;2.00;2.00;;;10.10;99.90;;;;;;10308917;28;20211;-81
2023/01/11 04:17:49;;;;;;;2.60;2.20;;;10.20;99.90;;;;;;10284005;28;20228;-79
2023/01/11 04:22:51;;;;;;;1.80;1.70;;;10.20;99.90;;;;;;10308052;28;20234;-81
2023/01/11 04:27:53;;;;;;;2.00;1.90;;;10.30;99.90;;;;;;10323409;28;20251;-79
2023/01/11 04:32:59;;;;;;;2.00;1.90;;;10.30;99.90;;;;;;10311943;28;20203;-79
2023/01/11 04:38:01;;;;;;;2.00;1.90;;;10.30;99.90;;;;;;10291876;28;20230;-81
2023/01/11 04:43:03;;;;;;;2.00;1.90;;;10.40;99.90;;;;;;10317022;28;20215;-81
2023/01/11 04:48:07;;;;;;;2.30;2.20;;;10.30;99.90;;;;;;10301895;28;20231;-81
2023/01/11 04:53:09;;;;;;;2.20;2.10;;;10.40;99.90;;;;;;10308300;28;20313;-80
2023/01/11 04:58:11;;;;;;;1.70;1.60;;;10.40;99.90;;;;;;10312580;28;20706;-79
2023/01/11 05:03:15;;;;;;;2.07;1.97;;;10.30;99.90;;;;;;10308639;28;20230;-82
2023/01/11 05:08:17;;;;;;;2.27;2.03;;;10.30;99.90;;;;;;10325698;28;20230;-81
2023/01/11 05:13:19;;;;;;;2.00;2.00;;;10.30;99.90;;;;;;10305508;28;20230;-79
2023/01/11 05:18:22;;;;;;;2.37;2.27;;;10.30;99.90;;;;;;10283769;28;20223;-81
2023/01/11 05:23:24;;;;;;;2.10;2.00;;;10.20;99.90;;;;;;10299259;28;20326;-80
2023/01/11 05:28:26;;;;;;;2.67;2.47;;;10.20;99.90;;;;;;10284903;28;21264;-80
2023/01/11 05:33:30;;;;;;;2.40;2.30;;;10.20;99.90;;;;;;10331770;28;20286;-80
2023/01/11 05:38:34;;;;;;;1.90;1.80;;;10.20;99.90;;;;;;10283572;28;20223;-79
2023/01/11 05:45:27;;;;;;;2.13;2.03;;;10.20;99.90;;;;;;10296307;28;20251;-79
2023/01/11 05:49:01;;;;;;;2.50;2.03;;;10.20;99.90;;;;;;10314962;28;20199;-79
2023/01/11 05:54:05;;;;;;;2.20;2.10;;;10.20;99.90;;;;;;10289229;28;20199;-80
2023/01/11 05:59:07;;;;;;;3.57;3.37;;;10.20;99.90;;;;;;10285951;28;20302;-80
2023/01/11 06:04:10;;;;;;;1.63;1.53;;;10.20;99.90;;;;;;10305505;28;20250;-79
2023/01/11 06:09:12;;;;;;;2.20;2.10;;;10.20;99.90;;;;;;10306205;28;20850;-79
2023/01/11 06:14:14;;;;;;;1.83;1.80;;;10.20;99.90;;;;;;10324428;28;20858;-79
2023/01/11 06:19:18;;;;;;;3.47;1.97;;;10.20;99.90;;;;;;10299962;28;20230;-79
2023/01/11 06:24:25;;;;;;;3.10;2.23;;;10.20;99.90;;;;;;10294428;28;20731;-80
2023/01/11 06:29:27;;;;;;;2.30;1.93;;;10.20;99.90;;;;;;10298423;28;20690;-79
2023/01/11 06:34:31;;;;;;;2.40;1.47;;;10.20;99.90;;;;;;10288669;28;20242;-79
2023/01/11 06:39:33;;;;;;;1.40;1.30;;;10.20;99.90;;;;;;10285193;28;20214;-79
2023/01/11 06:44:35;;;;;;;1.90;1.80;;;10.20;99.90;;;;;;10286039;28;20239;-80
2023/01/11 06:49:39;;;;;;;1.90;1.80;;;10.30;99.90;;;;;;10298955;28;20211;-79
2023/01/11 06:54:41;;;;;;;1.80;1.70;;;10.30;99.90;;;;;;10324252;28;20215;-80
2023/01/11 06:59:43;;;;;;;1.73;1.70;;;10.30;99.90;;;;;;10289234;28;20250;-81
2023/01/11 07:04:46;;;;;;;2.30;2.20;;;10.30;99.90;;;;;;10301594;28;20230;-82
2023/01/11 07:09:49;;;;;;;1.70;1.60;;;10.30;99.90;;;;;;10309938;28;20191;-81
2023/01/11 07:14:51;;;;;;;2.13;2.03;;;10.30;99.90;;;;;;10314983;28;20247;-81
2023/01/11 07:19:54;;;;;;;1.90;1.80;;;10.30;99.90;;;;;;10324863;28;20199;-81
2023/01/11 07:24:56;;;;;;;1.30;1.20;;;10.30;99.90;;;;;;10304013;28;20227;-80
2023/01/11 07:29:59;;;;;;;2.03;1.80;;;10.40;99.90;;;;;;10328565;28;20663;-80
2023/01/11 07:35:03;;;;;;;1.77;1.67;;;10.40;99.90;;;;;;10333746;28;20246;-80
2023/01/11 07:40:06;;;;;;;2.47;2.00;;;10.50;99.90;;;;;;10312768;28;20319;-81
2023/01/11 07:45:09;;;;;;;2.70;2.50;;;10.60;99.90;;;;;;10333757;28;20691;-81
2023/01/11 07:50:12;;;;;;;1.60;1.60;;;10.70;99.90;;;;;;10331883;28;20203;-82
2023/01/11 07:55:15;;;;;;;1.90;1.80;;;10.70;99.90;;;;;;10303887;28;20231;-82
2023/01/11 08:00:17;;;;;;;1.80;1.70;;;10.80;99.90;;;;;;10315451;28;20203;-82
2023/01/11 08:05:21;;;;;;;2.27;2.07;;;11.00;99.90;;;;;;10319542;28;20235;-82
2023/01/11 08:10:24;;;;;;;1.60;1.50;;;11.00;99.90;;;;;;10312713;28;20210;-82
2023/01/11 08:15:26;;;;;;;2.03;1.93;;;11.00;99.90;;;;;;10328788;28;20232;-80
2023/01/11 08:20:29;;;;;;;1.80;1.70;;;11.10;99.90;;;;;;10328963;28;20207;-80
2023/01/11 08:25:31;;;;;;;1.80;1.70;;;11.20;99.90;;;;;;10303789;28;20254;-81
2023/01/11 08:30:34;;;;;;;1.80;1.70;;;11.30;99.90;;;;;;10286872;28;20203;-81
2023/01/11 08:35:39;;;;;;;1.83;1.73;;;11.40;99.90;;;;;;10319162;28;20310;-81
2023/01/11 08:40:41;;;;;;;1.40;1.40;;;11.40;99.90;;;;;;10322407;28;20214;-81
2023/01/11 08:45:43;;;;;;;2.33;2.13;;;11.50;99.90;;;;;;10338057;28;20282;-80
2023/01/11 08:50:46;;;;;;;2.00;1.90;;;11.60;99.90;;;;;;10293616;28;20296;-81
2023/01/11 08:55:49;;;;;;;2.10;2.00;;;11.60;99.90;;;;;;10301865;28;21194;-83
2023/01/11 09:00:51;;;;;;;1.43;1.00;;;11.60;99.90;;;;;;10313484;28;20261;-82
2023/01/11 09:05:55;;;;;;;1.17;1.17;;;11.70;99.90;;;;;;10318707;28;20641;-82
2023/01/11 09:10:58;;;;;;;2.00;1.37;;;11.70;99.90;;;;;;10317859;28;20216;-82
2023/01/11 09:16:00;;;;;;;1.40;1.30;;;11.70;99.90;;;;;;10304241;28;20226;-80
2023/01/11 09:21:04;;;;;;;1.53;1.53;;;11.80;99.90;;;;;;10298087;28;20211;-81
2023/01/11 09:26:07;;;;;;;1.73;1.63;;;11.80;99.90;;;;;;10313406;28;20310;-83
2023/01/11 09:31:09;;;;;;;1.80;1.70;;;11.90;99.90;;;;;;10320074;28;20227;-80
2023/01/11 09:36:13;;;;;;;1.57;1.47;;;11.90;99.90;;;;;;10324111;28;20250;-80
2023/01/11 09:41:38;;;;;;;1.87;1.77;;;12.00;99.90;;;;;;10324841;28;20203;-80
2023/01/11 09:46:44;;;;;;;2.70;2.50;;;12.00;99.90;;;;;;10306980;28;20238;-80
2023/01/11 09:51:50;;;;;;;1.87;1.67;;;12.00;99.90;;;;;;10326045;28;20596;-80
2023/01/11 09:57:05;;;;;;;1.60;1.60;;;12.10;99.90;;;;;;10305262;28;20218;-80
2023/01/11 10:02:22;;;;;;;1.67;1.57;;;12.10;99.90;;;;;;10278671;28;20206;-80
2023/01/11 10:07:52;;;;;;;1.83;1.73;;;12.10;99.90;;;;;;10321707;28;20926;-80
2023/01/11 10:13:06;;;;;;;1.57;1.47;;;12.20;99.90;;;;;;10285248;28;20225;-80
2023/01/11 10:18:27;;;;;;;2.17;2.07;;;12.20;99.90;;;;;;10322204;28;20235;-82
2023/01/11 10:23:40;;;;;;;1.70;1.50;;;12.30;99.90;;;;;;10324871;28;20204;-82
2023/01/11 10:29:06;;;;;;;1.20;1.10;;;12.30;99.90;;;;;;10320659;28;20231;-82
2023/01/11 10:34:37;;;;;;;1.80;1.80;;;12.30;99.90;;;;;;10323532;28;20230;-82
2023/01/11 10:40:05;;;;;;;4.77;2.07;;;12.40;99.90;;;;;;10286738;28;20278;-82
2023/01/11 10:45:16;;;;;;;2.00;1.90;;;12.50;99.90;;;;;;10321568;28;20249;-82
2023/01/11 10:50:24;;;;;;;2.00;1.90;;;12.40;99.90;;;;;;10324367;28;20290;-82
2023/01/11 10:55:38;;;;;;;1.90;1.80;;;12.50;99.90;;;;;;10316653;28;20234;-80
2023/01/11 11:00:49;;;;;;;1.90;1.90;;;12.50;99.90;;;;;;10298422;28;20242;-81
2023/01/11 11:05:58;;;;;;;2.10;2.00;;;12.50;99.90;;;;;;10320817;28;21190;-81
2023/01/11 11:11:05;;;;;;;1.93;1.83;;;12.50;99.90;;;;;;10316481;28;20199;-83
2023/01/11 11:16:23;;;;;;;1.87;1.77;;;12.50;99.90;;;;;;10313212;28;20603;-83
2023/01/11 11:21:28;;;;;;;2.03;1.90;;;12.50;99.90;;;;;;10308701;28;20302;-82
2023/01/11 11:26:37;;;;;;;2.10;2.00;;;12.50;99.90;;;;;;10315758;28;20403;-81
2023/01/11 11:31:45;;;;;;;1.97;1.87;;;12.30;99.90;;;;;;10298409;28;20219;-81
2023/01/11 11:36:50;;;;;;;1.97;1.87;;;12.30;99.90;;;;;;10311993;28;20243;-83
2023/01/11 11:41:56;;;;;;;3.13;1.63;;;12.30;99.90;;;;;;10306223;28;20293;-81
2023/01/11 11:46:59;;;;;;;1.80;1.70;;;12.40;99.90;;;;;;10316046;28;20235;-82
2023/01/11 11:52:04;;;;;;;1.90;1.80;;;12.40;99.90;;;;;;10316881;28;20250;-81
2023/01/11 11:57:21;;;;;;;2.10;2.00;;;12.50;99.90;;;;;;10319992;28;20737;-81
2023/01/11 12:02:27;;;;;;;2.43;2.20;;;12.50;99.90;;;;;;10319884;28;20231;-80
2023/01/11 12:07:34;;;;;;;1.90;1.80;;;12.50;99.90;;;;;;10310587;28;21618;-80
2023/01/11 12:12:50;;;;;;;1.83;1.73;;;12.50;99.90;;;;;;10295080;28;20231;-81
2023/01/11 12:17:53;;;;;;;1.90;1.90;;;12.50;99.90;;;;;;10327057;28;20246;-81
2023/01/11 12:23:20;;;;;;;2.20;2.10;;;12.50;99.90;;;;;;10331014;28;20200;-81
2023/01/11 12:28:34;;;;;;;3.23;2.20;;;12.50;99.90;;;;;;10330671;28;20227;-81
2023/01/11 12:33:45;;;;;;;2.87;2.67;;;12.50;99.90;;;;;;10329630;28;20241;-80
2023/01/11 12:38:59;;;;;;;1.90;1.80;;;12.50;99.90;;;;;;10327915;28;21275;-81
2023/01/11 12:44:09;;;;;;;1.47;1.37;;;12.50;99.90;;;;;;10318152;28;20231;-80
2023/01/11 12:49:25;;;;;;;1.70;1.60;;;12.50;99.90;;;;;;10319177;28;20227;-81
2023/01/11 12:54:46;;;;;;;2.10;2.00;;;12.50;99.90;;;;;;10331173;28;20745;-80
2023/01/11 13:00:27;;;;;;;2.10;2.00;;;12.50;99.90;;;;;;10336600;28;20211;-80
2023/01/11 13:05:38;;;;;;;2.50;2.40;;;12.50;99.90;;;;;;10301476;28;21253;-81
2023/01/11 13:10:55;;;;;;;2.97;2.77;;;12.40;99.90;;;;;;10332584;28;20199;-81
2023/01/11 13:16:03;;;;;;;2.57;2.37;;;12.40;99.90;;;;;;10304732;28;20222;-81
2023/01/11 13:21:17;;;;;;;2.70;2.60;;;12.30;99.90;;;;;;10304807;28;20716;-81
2023/01/11 13:26:23;;;;;;;2.77;2.67;;;12.20;99.90;;;;;;10305145;28;20282;-81
2023/01/11 13:31:26;;;;;;;3.13;2.87;;;12.20;99.90;;;;;;10328797;28;20557;-80
2023/01/11 13:36:36;;;;;;;2.10;2.00;;;12.20;99.90;;;;;;10319249;28;21515;-81
2023/01/11 13:41:45;;;;;;;2.50;2.40;;;12.20;99.90;;;;;;10323330;28;20203;-81
2023/01/11 13:47:00;;;;;;;3.87;3.00;;;12.20;99.90;;;;;;10304741;28;20261;-83
2023/01/11 13:52:11;;;;;;;2.90;2.80;;;12.20;99.90;;;;;;10326279;28;20230;-81
2023/01/11 13:57:16;;;;;;;4.73;3.03;;;12.20;99.90;;;;;;10308083;28;20662;-82
2023/01/11 14:02:27;;;;;;;2.50;2.30;;;12.10;99.90;;;;;;10312285;28;20205;-82
2023/01/11 14:07:43;;;;;;;3.20;3.00;;;12.10;99.90;;;;;;10315729;28;20290;-81
2023/01/11 14:13:04;;;;;;;4.20;3.87;;;12.10;99.90;;;;;;10330816;28;20246;-82
2023/01/11 14:18:28;;;;;;;3.90;3.70;;;12.00;99.90;;;;;;10308295;28;20227;-82
2023/01/11 14:23:41;;;;;;;3.67;3.47;;;12.10;99.90;;;;;;10309673;28;20286;-80
2023/01/11 14:28:59;;;;;;;4.70;4.30;;;12.10;99.90;;;;;;10293579;28;20242;-82
2023/01/11 14:34:32;;;;;;;3.43;3.30;;;12.20;99.90;;;;;;10323840;28;20551;-81
2023/01/11 14:40:08;;;;;;;3.80;3.60;;;12.10;99.90;;;;;;10301655;28;20205;-81
2023/01/11 14:45:19;;;;;;;3.47;3.37;;;12.20;99.90;;;;;;10300779;28;20249;-81
2023/01/11 14:50:29;;;;;;;3.97;3.70;;;12.10;99.90;;;;;;10304363;28;20207;-81
2023/01/11 14:55:39;;;;;;;3.33;3.13;;;12.10;99.90;;;;;;10322701;28;20234;-81
2023/01/11 15:01:07;;;;;;;3.27;3.07;;;12.10;99.90;;;;;;10318300;28;20208;-81
2023/01/11 15:06:13;;;;;;;3.00;2.83;;;12.10;99.90;;;;;;10322877;28;20309;-81
2023/01/11 15:11:39;;;;;;;6.00;5.50;;;12.00;99.90;;;;;;10319137;28;20238;-81
2023/01/11 15:22:23;;;;;;;2.33;2.23;;;12.00;99.90;;;;;;10299971;28;20195;-81
2023/01/11 15:27:31;;;;;;;3.87;2.70;;;11.90;99.90;;;;;;10312326;28;20236;-82
2023/01/11 15:32:35;;;;;;;2.37;2.27;;;11.90;99.90;;;;;;10323654;28;20228;-81
2023/01/11 15:37:47;;;;;;;2.47;2.30;;;11.90;99.90;;;;;;10321238;28;20223;-80
2023/01/11 15:43:22;;;;;;;2.20;2.00;;;11.90;99.90;;;;;;10326420;28;20203;-79
2023/01/11 15:48:36;;;;;;;2.97;2.70;;;11.90;99.90;;;;;;10327895;28;20223;-79
2023/01/11 15:54:22;;;;;;;2.40;2.27;;;11.80;99.90;;;;;;10329399;28;20238;-79
2023/01/11 15:59:51;;;;;;;3.20;3.00;;;11.80;99.90;;;;;;10122432;29;20680;-80
2023/01/11 16:04:58;;;;;;;2.30;2.00;;;11.70;99.90;;;;;;10306216;28;20624;-79
2023/01/11 16:10:22;;;;;;;3.13;2.93;;;11.70;99.90;;;;;;10310755;28;20590;-80
2023/01/11 16:15:38;;;;;;;3.40;2.60;;;11.70;99.90;;;;;;10328796;28;20248;-79
2023/01/11 16:20:55;;;;;;;3.67;2.77;;;11.70;99.90;;;;;;10316314;28;20203;-80
2023/01/11 16:25:59;;;;;;;3.63;3.00;;;11.60;99.90;;;;;;10333131;28;20215;-80
2023/01/11 16:31:04;;;;;;;3.33;3.03;;;11.60;99.90;;;;;;10332852;28;20294;-79
2023/01/11 16:36:11;;;;;;;7.60;3.27;;;11.60;99.90;;;;;;10324826;28;20232;-79
2023/01/11 16:41:16;;;;;;;4.30;2.67;;;11.60;99.90;;;;;;10323532;28;20290;-80
2023/01/11 16:47:16;;;;;;;3.27;2.97;;;11.50;99.90;;;;;;10313411;28;21253;-81
2023/01/11 16:52:47;;;;;;;3.07;2.73;;;11.50;99.90;;;;;;10338276;28;20243;-82
2023/01/11 16:57:53;;;;;;;3.97;3.10;;;11.50;99.90;;;;;;10325875;28;20305;-79
2023/01/11 17:03:04;;;;;;;4.97;3.10;;;11.50;99.90;;;;;;10318979;28;20203;-79
2023/01/11 17:08:24;;;;;;;3.90;3.13;;;11.40;99.90;;;;;;10338676;28;20227;-79
2023/01/11 17:13:55;;;;;;;3.97;3.13;;;11.40;99.90;;;;;;10302101;28;20223;-80
2023/01/11 17:19:08;;;;;;;3.60;3.30;;;11.40;99.90;;;;;;10340002;28;20207;-80
2023/01/11 17:24:13;;;;;;;13.27;6.50;;;11.30;99.90;;;;;;10338867;28;20231;-78
2023/01/11 17:29:22;;;;;;;5.03;2.83;;;11.30;99.90;;;;;;10337790;28;20243;-79
2023/01/11 17:34:27;;;;;;;5.57;3.27;;;11.40;99.90;;;;;;10322332;28;20281;-80
2023/01/11 17:39:34;;;;;;;5.33;2.80;;;11.30;99.90;;;;;;10336604;28;20203;-79
2023/01/11 17:49:58;;;;;;;8.90;4.70;;;11.20;99.90;;;;;;10315052;28;20237;-80
2023/01/11 17:55:11;;;;;;;6.90;4.00;;;11.30;99.90;;;;;;10337438;28;20227;-80
2023/01/11 18:00:23;;;;;;;3.23;2.90;;;11.30;99.90;;;;;;10338165;28;20210;-80
2023/01/11 18:05:28;;;;;;;7.07;3.90;;;11.30;99.90;;;;;;10318104;28;20238;-79
2023/01/11 18:10:36;;;;;;;5.40;4.90;;;11.30;99.90;;;;;;10331656;28;20226;-80
2023/01/11 18:15:38;;;;;;;5.30;4.73;;;11.30;99.90;;;;;;10326945;28;20282;-80
2023/01/11 18:20:41;;;;;;;5.83;5.20;;;11.30;99.90;;;;;;10320394;28;20230;-80
2023/01/11 18:25:45;;;;;;;6.37;5.77;;;11.20;99.90;;;;;;10321381;28;20223;-80
2023/01/11 18:30:52;;;;;;;8.70;7.80;;;11.00;99.90;;;;;;10322735;28;20242;-80
2023/01/11 18:35:56;;;;;;;13.73;12.53;;;10.90;99.90;;;;;;10296871;28;20234;-79
2023/01/11 18:46:24;;;;;;;7.77;6.97;;;10.50;99.90;;;;;;10301556;28;20879;-79
2023/01/11 18:51:31;;;;;;;6.70;6.00;;;10.40;99.90;;;;;;10320746;28;20223;-80
2023/01/11 18:56:34;;;;;;;6.40;5.90;;;10.20;99.90;;;;;;10322247;28;20306;-79
2023/01/11 19:01:38;;;;;;;8.30;5.73;;;10.10;99.90;;;;;;10307328;28;20636;-79
2023/01/11 19:06:40;;;;;;;6.47;5.87;;;10.00;99.90;;;;;;10319948;28;20246;-79
2023/01/11 19:11:44;;;;;;;7.33;6.30;;;9.80;99.90;;;;;;10320529;28;20608;-79
2023/01/11 19:16:46;;;;;;;4.87;4.53;;;9.80;99.90;;;;;;10328643;28;20309;-80
2023/01/11 19:21:48;;;;;;;6.97;6.30;;;9.70;99.90;;;;;;10308533;28;20218;-80
2023/01/11 19:26:52;;;;;;;8.53;6.03;;;9.50;99.90;;;;;;10310162;28;20227;-79
2023/01/11 19:31:55;;;;;;;6.37;5.13;;;9.40;99.90;;;;;;10294147;28;20199;-79
2023/01/11 19:36:57;;;;;;;6.07;5.00;;;9.40;99.90;;;;;;10327051;28;20286;-80
2023/01/11 19:42:01;;;;;;;4.83;3.10;;;9.40;99.90;;;;;;10328199;28;21186;-79
2023/01/11 19:47:04;;;;;;;6.30;4.30;;;9.30;99.90;;;;;;10331051;28;20241;-79
2023/01/11 19:52:11;;;;;;;5.20;4.70;;;9.30;99.90;;;;;;10338350;28;20203;-80
2023/01/11 19:57:17;;;;;;;5.27;4.47;;;9.30;99.90;;;;;;10321193;28;20998;-80
2023/01/11 20:02:21;;;;;;;6.50;4.80;;;9.30;99.90;;;;;;10333703;28;20292;-80
2023/01/11 20:07:23;;;;;;;5.60;4.23;;;9.30;99.90;;;;;;10333209;28;20223;-79
2023/01/11 20:12:26;;;;;;;4.93;3.60;;;9.30;99.90;;;;;;10320189;28;20294;-80
2023/01/11 20:17:28;;;;;;;6.80;4.50;;;9.20;99.90;;;;;;10338965;28;20239;-80
2023/01/11 20:22:30;;;;;;;5.90;4.00;;;9.20;99.90;;;;;;10319752;28;20203;-80
2023/01/11 20:27:34;;;;;;;7.30;4.53;;;9.20;99.90;;;;;;10330475;28;20222;-80
2023/01/11 20:32:37;;;;;;;6.03;4.30;;;9.30;99.90;;;;;;10322284;28;20219;-80
2023/01/11 20:37:40;;;;;;;5.57;3.87;;;9.30;99.90;;;;;;10324736;28;20223;-80
2023/01/11 20:42:45;;;;;;;4.90;3.80;;;9.30;99.90;;;;;;10324714;28;20206;-80
2023/01/11 20:47:47;;;;;;;6.57;3.60;;;9.40;99.90;;;;;;10330284;28;20233;-80
2023/01/11 20:52:49;;;;;;;6.03;3.90;;;9.40;99.90;;;;;;10331595;28;20225;-81
2023/01/11 20:57:52;;;;;;;5.20;3.80;;;9.40;99.90;;;;;;10328840;28;20281;-80
2023/01/11 21:02:54;;;;;;;3.90;3.20;;;9.40;99.90;;;;;;10329733;28;21308;-81
2023/01/11 21:07:57;;;;;;;4.03;3.47;;;9.40;99.90;;;;;;10333527;28;20600;-80
2023/01/11 21:13:01;;;;;;;5.83;3.83;;;9.40;99.90;;;;;;10328979;28;20203;-80
2023/01/11 21:18:04;;;;;;;4.97;3.20;;;9.40;99.90;;;;;;10328178;28;20424;-80
2023/01/11 21:23:15;;;;;;;4.87;3.60;;;9.30;99.90;;;;;;10329911;28;20200;-80
2023/01/11 21:28:19;;;;;;;5.87;4.80;;;9.20;99.90;;;;;;10311039;28;20806;-80
2023/01/11 21:33:21;;;;;;;6.03;4.00;;;9.00;99.90;;;;;;10312899;28;20653;-80
2023/01/11 21:38:23;;;;;;;4.47;4.00;;;8.70;99.90;;;;;;10277998;28;20231;-80
2023/01/11 21:43:26;;;;;;;6.33;4.03;;;8.60;99.90;;;;;;10316832;28;20207;-80
2023/01/11 21:48:28;;;;;;;5.07;3.97;;;8.30;99.90;;;;;;10298891;28;20719;-79
2023/01/11 21:53:31;;;;;;;5.60;3.67;;;8.20;99.90;;;;;;10316129;28;20311;-81
2023/01/11 21:58:35;;;;;;;7.20;3.73;;;8.10;99.90;;;;;;10295048;28;20224;-80
2023/01/11 22:03:45;;;;;;;5.87;3.60;;;8.00;99.90;;;;;;10510335;27;20550;-81
2023/01/11 22:08:47;;;;;;;7.53;3.83;;;7.90;99.90;;;;;;10504159;28;20246;-81
2023/01/11 22:13:49;;;;;;;5.70;3.93;;;8.00;99.90;;;;;;10504109;28;20208;-82
2023/01/11 22:18:53;;;;;;;5.47;3.28;;;7.90;99.90;;;;;;10504548;28;20270;-80
2023/01/11 22:23:57;;;;;;;4.53;2.95;;;7.90;99.90;;;;;;10523702;28;20227;-81
2023/01/11 22:29:13;;;;;;;4.30;3.57;;;8.00;99.90;;;;;;10506490;28;20246;-82
2023/01/11 22:34:17;;;;;;;5.00;3.20;;;7.90;99.90;;;;;;10497580;28;20204;-81
2023/01/11 22:39:19;;;;;;;4.60;3.47;;;7.80;99.90;;;;;;10492281;28;20601;-82
2023/01/11 22:44:21;;;;;;;4.93;3.30;;;7.70;99.90;;;;;;10496420;28;20312;-82
2023/01/11 22:49:25;;;;;;;7.57;3.50;;;7.80;99.90;;;;;;10492302;28;20205;-81
2023/01/11 22:54:27;;;;;;;6.20;4.87;;;8.00;99.90;;;;;;10508506;28;20284;-82
2023/01/11 22:59:29;;;;;;;5.00;2.40;;;8.20;99.90;;;;;;10498514;28;20219;-81
2023/01/11 23:04:33;;;;;;;6.77;3.57;;;8.30;99.90;;;;;;10509440;28;20221;-81
2023/01/11 23:09:35;;;;;;;8.53;3.70;;;8.20;99.90;;;;;;10508103;28;20950;-81
2023/01/11 23:14:37;;;;;;;3.50;3.20;;;8.30;99.90;;;;;;10482444;28;20217;-81
2023/01/11 23:19:41;;;;;;;6.50;3.20;;;8.40;99.90;;;;;;10482830;28;20247;-81
2023/01/11 23:24:43;;;;;;;8.10;3.80;;;8.50;99.90;;;;;;10482736;28;20288;-81
2023/01/11 23:29:45;;;;;;;6.83;3.43;;;8.60;99.90;;;;;;10481689;28;20204;-80
2023/01/11 23:34:49;;;;;;;6.43;2.60;;;8.60;99.90;;;;;;10474083;28;20240;-80
2023/01/11 23:39:51;;;;;;;7.70;3.30;;;8.70;99.90;;;;;;10473324;28;20228;-81
2023/01/11 23:44:53;;;;;;;3.27;2.70;;;8.70;99.90;;;;;;10484066;28;20671;-80
2023/01/11 23:49:59;;;;;;;5.97;3.05;;;8.70;99.90;;;;;;10475481;28;20197;-81
2023/01/11 23:55:01;;;;;;;5.60;3.30;;;8.80;99.90;;;;;;10478851;28;21284;-81
